Time;durP1;ratioP1;P1;durP2;ratioP2;P2;SDS_P1;SDS_P2;PMS_P1;PMS_P2;Temp;Humidity;BMP_temperature;BMP_pressure;BME280_temperature;BME280_humidity;BME280_pressure;Samples;Min_cycle;Max_cycle;Signal;HPM_P1;HPM_P2
2022/02/25 00:02:37;;;;;;;17.45;7.15;;;;;;;2.92;61.69;98709.12;4303537;80;21106;-92
2022/02/25 00:08:39;;;;;;;17.35;5.53;;;;;;;3.09;61.50;98694.64;4297949;80;21590;-92
2022/02/25 00:14:40;;;;;;;10.60;4.05;;;;;;;3.31;61.31;98690.20;4304898;80;21014;-91
2022/02/25 00:20:44;;;;;;;10.70;4.40;;;;;;;3.48;61.06;98677.83;4307774;80;21058;-90
2022/02/25 00:26:57;;;;;;;11.53;4.70;;;;;;;3.82;60.35;98682.05;4310413;80;21058;-90
2022/02/25 00:32:58;;;;;;;13.18;5.17;;;;;;;3.69;59.93;98674.48;4305107;80;20998;-90
2022/02/25 00:38:59;;;;;;;13.40;5.08;;;;;;;3.62;59.94;98662.06;4300100;80;21077;-91
2022/02/25 00:45:05;;;;;;;19.50;6.70;;;;;;;3.42;59.87;98664.84;4288682;80;21052;-91
2022/02/25 00:51:10;;;;;;;16.67;6.42;;;;;;;3.16;59.93;98663.22;4255369;80;22010;-90
2022/02/25 00:57:26;;;;;;;14.35;5.87;;;;;;;2.89;60.32;98657.06;4405113;80;21386;-90
2022/02/25 01:03:28;;;;;;;20.97;7.12;;;;;;;2.68;60.70;98646.03;4410261;80;21014;-90
2022/02/25 01:09:39;;;;;;;18.23;7.05;;;;;;;2.59;61.03;98637.21;4239785;82;21592;-91
2022/02/25 01:15:41;;;;;;;29.15;10.55;;;;;;;2.38;60.96;98633.17;4386759;80;21678;-91
2022/02/25 01:22:03;;;;;;;30.57;10.88;;;;;;;2.21;61.25;98635.23;4373062;81;21111;-91
2022/02/25 01:28:05;;;;;;;30.32;13.75;;;;;;;2.12;61.87;98633.12;4375288;81;21497;-91
2022/02/25 01:34:07;;;;;;;38.67;15.75;;;;;;;2.10;64.06;98629.98;4376682;81;21550;-91
2022/02/25 01:40:12;;;;;;;35.85;13.93;;;;;;;2.22;63.89;98621.39;4370724;80;21500;-91
2022/02/25 01:46:15;;;;;;;30.08;14.00;;;;;;;2.48;64.44;98619.82;4378792;78;21056;-89
2022/02/25 01:52:18;;;;;;;17.77;9.33;;;;;;;2.78;63.52;98618.05;4374113;80;21086;-89
2022/02/25 01:58:24;;;;;;;17.80;7.90;;;;;;;3.07;63.76;98603.02;4374381;80;21032;-91
2022/02/25 02:04:26;;;;;;;19.32;7.75;;;;;;;3.55;64.11;98606.92;4380792;80;21075;-88
2022/02/25 02:10:27;;;;;;;17.07;7.50;;;;;;;3.67;63.71;98607.70;4384651;80;22000;-91
2022/02/25 02:16:31;;;;;;;16.10;6.33;;;;;;;3.59;63.99;98615.38;4381666;80;21064;-92
2022/02/25 02:22:34;;;;;;;12.93;5.28;;;;;;;3.59;64.25;98622.69;4380934;79;21032;-90
2022/02/25 02:28:44;;;;;;;10.98;4.75;;;;;;;3.81;64.96;98614.13;4383971;80;21037;-90
2022/02/25 02:34:46;;;;;;;12.00;3.95;;;;;;;4.05;65.20;98612.20;4198766;82;21087;-90
2022/02/25 02:40:49;;;;;;;8.63;3.40;;;;;;;4.36;64.53;98614.27;4217165;83;21034;-92
2022/02/25 02:46:50;;;;;;;6.58;3.17;;;;;;;4.82;63.00;98609.00;4379313;79;21002;-91
2022/02/25 02:52:53;;;;;;;8.75;3.08;;;;;;;5.22;62.38;98603.48;4402429;79;21056;-91
2022/02/25 02:58:55;;;;;;;6.37;3.42;;;;;;;5.51;61.24;98613.89;4379709;78;21363;-91
2022/02/25 03:04:57;;;;;;;11.90;3.10;;;;;;;5.86;60.90;98614.79;4368396;81;21551;-92
2022/02/25 03:11:02;;;;;;;6.72;3.12;;;;;;;6.00;60.38;98618.39;4372781;78;21019;-90
2022/02/25 03:17:05;;;;;;;9.60;3.85;;;;;;;6.07;60.11;98623.45;4222936;83;22001;-91
2022/02/25 03:23:12;;;;;;;11.18;3.58;;;;;;;6.18;59.46;98625.83;4298232;82;21023;-91
2022/02/25 03:29:14;;;;;;;6.47;2.60;;;;;;;6.26;58.57;98629.48;4370007;79;21045;-90
2022/02/25 03:35:21;;;;;;;10.68;3.33;;;;;;;6.26;58.39;98625.41;4365000;80;21052;-91
2022/02/25 03:41:27;;;;;;;9.33;3.22;;;;;;;6.13;58.96;98638.89;4380720;81;21300;-90
2022/02/25 03:47:27;;;;;;;10.45;4.08;;;;;;;5.94;59.13;98638.83;4224860;82;21028;-92
2022/02/25 03:53:30;;;;;;;9.60;3.35;;;;;;;6.00;58.96;98637.41;4275070;81;21055;-90
2022/02/25 03:59:38;;;;;;;7.20;3.60;;;;;;;5.81;59.00;98635.39;4451505;78;21065;-91
2022/02/25 04:05:42;;;;;;;8.25;3.58;;;;;;;5.57;59.05;98633.45;4459540;78;21027;-90
2022/02/25 04:11:48;;;;;;;7.58;3.33;;;;;;;5.22;59.14;98659.11;4465482;78;21880;-91
2022/02/25 04:17:50;;;;;;;7.05;3.87;;;;;;;5.09;59.34;98662.24;4389108;78;21056;-90
2022/02/25 04:23:58;;;;;;;6.67;3.10;;;;;;;4.83;59.43;98670.81;4361741;80;42342;-89
2022/02/25 04:30:13;;;;;;;6.53;3.10;;;;;;;4.64;59.65;98676.07;4387880;79;21055;-90
2022/02/25 04:36:14;;;;;;;7.75;3.77;;;;;;;4.52;59.70;98677.47;4391710;79;21554;-92
2022/02/25 04:42:17;;;;;;;10.55;3.67;;;;;;;4.43;59.84;98681.65;4383346;78;21069;-89
2022/02/25 04:48:19;;;;;;;7.05;3.58;;;;;;;4.40;60.03;98690.47;4390571;79;21111;-90
2022/02/25 04:54:21;;;;;;;10.18;4.10;;;;;;;4.39;60.23;98686.19;4400513;79;21043;-90
2022/02/25 05:00:31;;;;;;;9.75;4.10;;;;;;;4.47;60.23;98689.34;4393276;79;21018;-90
2022/02/25 05:06:35;;;;;;;6.33;3.50;;;;;;;4.65;60.27;98699.36;4401013;79;21050;-91
2022/02/25 05:12:39;;;;;;;9.90;3.75;;;;;;;4.53;60.26;98708.30;4393185;79;21078;-89
2022/02/25 05:25:11;;;;;;;9.35;4.10;;;;;;;4.37;60.40;98733.74;4391798;79;21075;-90
2022/02/25 05:31:19;;;;;;;10.65;3.47;;;;;;;4.25;60.55;98756.20;4403724;79;21071;-90
2022/02/25 05:37:29;;;;;;;9.60;3.60;;;;;;;4.17;60.75;98761.17;4386906;80;20997;-90
2022/02/25 05:43:32;;;;;;;9.20;3.58;;;;;;;4.18;61.07;98761.97;4399380;79;21058;-92
2022/02/25 05:49:34;;;;;;;11.70;3.85;;;;;;;4.23;61.24;98769.84;4393097;79;21085;-91
2022/02/25 05:55:42;;;;;;;79.27;27.05;;;;;;;4.30;61.46;98784.44;4411778;79;21756;-89
2022/02/25 06:01:46;;;;;;;30.80;9.98;;;;;;;4.37;62.04;98804.97;4412063;79;22073;-90
2022/02/25 06:07:49;;;;;;;28.32;12.45;;;;;;;4.65;62.19;98818.66;4416893;79;21089;-91
2022/02/25 06:13:50;;;;;;;16.30;8.03;;;;;;;4.76;62.05;98827.33;4412875;79;21031;-91
2022/02/25 06:19:52;;;;;;;18.12;7.92;;;;;;;4.92;62.21;98826.65;4407727;79;21051;-91
2022/02/25 06:25:54;;;;;;;15.78;7.90;;;;;;;5.11;62.37;98841.18;4410818;79;21074;-89
2022/02/25 06:31:56;;;;;;;19.42;7.15;;;;;;;5.25;62.40;98851.66;4409569;79;22220;-90
2022/02/25 06:38:01;;;;;;;17.60;6.47;;;;;;;5.31;62.49;98857.86;4403512;79;21616;-90
2022/02/25 06:44:06;;;;;;;17.60;6.05;;;;;;;5.35;62.75;98875.61;4418498;79;21377;-90
2022/02/25 06:50:09;;;;;;;16.65;6.20;;;;;;;5.44;63.13;98892.55;4403337;79;21086;-91
2022/02/25 06:56:13;;;;;;;16.85;6.58;;;;;;;5.50;63.51;98912.89;4368561;79;21361;-92
2022/02/25 07:02:15;;;;;;;13.25;6.20;;;;;;;5.47;63.79;98932.03;4371051;79;21102;-93
2022/02/25 07:08:19;;;;;;;19.10;7.08;;;;;;;5.38;64.52;98965.86;4364783;79;21051;-91
2022/02/25 07:14:20;;;;;;;15.25;7.00;;;;;;;5.30;65.02;98989.29;4374466;79;21055;-93
2022/02/25 07:20:23;;;;;;;15.80;7.22;;;;;;;5.15;66.41;99023.90;4368415;79;21082;-92
2022/02/25 07:26:25;;;;;;;12.20;5.30;;;;;;;4.93;67.33;99056.87;4375624;79;21051;-88
2022/02/25 07:32:26;;;;;;;3.65;1.30;;;;;;;4.69;70.45;99091.50;4374427;79;21073;-89
2022/02/25 07:38:31;;;;;;;3.15;0.98;;;;;;;3.88;73.86;99124.81;4378345;79;21025;-89
2022/02/25 07:44:33;;;;;;;3.45;1.75;;;;;;;3.20;73.80;99140.23;4374772;81;21073;-90
2022/02/25 07:50:35;;;;;;;3.30;1.98;;;;;;;3.00;73.55;99140.93;4380747;81;21536;-90
2022/02/25 07:56:36;;;;;;;4.65;2.45;;;;;;;2.99;74.07;99156.91;4394235;79;21050;-90
2022/02/25 08:02:38;;;;;;;6.37;3.27;;;;;;;3.08;74.36;99166.36;4356994;79;21578;-92
2022/02/25 08:08:40;;;;;;;8.80;4.08;;;;;;;3.12;74.44;99174.05;4396054;79;21911;-91
2022/02/25 08:14:41;;;;;;;9.65;4.90;;;;;;;3.19;74.72;99196.02;4396871;79;21612;-90
2022/02/25 08:20:43;;;;;;;8.53;4.75;;;;;;;3.12;75.20;99192.99;4400822;79;21066;-90
2022/02/25 08:26:46;;;;;;;10.45;4.97;;;;;;;3.11;75.51;99202.23;4395859;79;21063;-90
2022/02/25 08:32:50;;;;;;;13.28;6.35;;;;;;;3.14;76.07;99201.59;4395450;79;21056;-94
2022/02/25 08:38:52;;;;;;;11.50;6.58;;;;;;;3.19;76.34;99205.48;4399054;79;21098;-91
2022/02/25 08:44:56;;;;;;;10.70;6.42;;;;;;;3.22;76.53;99208.90;4395209;79;21070;-90
2022/02/25 08:50:58;;;;;;;11.35;7.08;;;;;;;3.23;77.26;99215.89;4388970;79;21764;-89
2022/02/25 08:57:01;;;;;;;15.53;8.50;;;;;;;3.24;77.35;99225.61;4369874;79;21023;-89
2022/02/25 09:03:10;;;;;;;17.92;9.63;;;;;;;3.27;77.49;99224.16;4360954;79;21082;-90
2022/02/25 09:09:11;;;;;;;17.00;10.93;;;;;;;3.21;77.53;99232.44;4362065;79;21605;-91
2022/02/25 09:15:24;;;;;;;26.68;12.93;;;;;;;3.18;77.80;99241.75;4364889;79;21680;-90
2022/02/25 09:21:28;;;;;;;20.80;11.73;;;;;;;3.14;78.05;99259.75;4371717;79;21055;-91
2022/02/25 09:27:29;;;;;;;16.90;10.45;;;;;;;3.12;78.55;99266.83;4364920;79;21075;-90
2022/02/25 09:33:31;;;;;;;18.75;10.08;;;;;;;3.14;78.76;99270.56;4372006;79;21349;-90
2022/02/25 09:39:33;;;;;;;17.42;10.13;;;;;;;3.26;79.23;99262.59;4360492;79;21580;-92
2022/02/25 09:45:38;;;;;;;15.80;10.45;;;;;;;3.55;79.37;99276.80;4348954;79;21074;-91
2022/02/25 09:51:40;;;;;;;18.17;10.98;;;;;;;3.84;79.94;99291.76;4359285;79;21087;-90
2022/02/25 09:57:45;;;;;;;21.10;10.98;;;;;;;4.03;79.46;99294.89;4396524;79;20983;-90
2022/02/25 10:03:53;;;;;;;13.85;8.95;;;;;;;4.26;79.15;99292.18;4393940;79;21035;-90
2022/02/25 10:09:55;;;;;;;15.43;8.83;;;;;;;4.50;78.86;99291.80;4400859;79;21566;-90
2022/02/25 10:16:01;;;;;;;16.10;9.28;;;;;;;4.59;78.60;99294.45;4390371;79;21011;-89
2022/02/25 10:22:28;;;;;;;21.00;11.78;;;;;;;4.76;78.45;99295.14;4395923;79;21050;-90
2022/02/25 10:28:33;;;;;;;21.15;10.08;;;;;;;4.82;78.82;99295.76;4389082;79;21054;-92
2022/02/25 10:34:36;;;;;;;9.90;6.90;;;;;;;4.74;77.96;99296.61;4388775;79;21039;-91
2022/02/25 10:40:49;;;;;;;17.20;9.70;;;;;;;4.63;78.18;99300.82;4391475;79;21566;-91
2022/02/25 10:46:54;;;;;;;20.30;10.03;;;;;;;4.59;78.25;99308.00;4401992;79;21110;-90
2022/02/25 10:52:58;;;;;;;27.30;10.43;;;;;;;4.46;78.45;99308.47;4364400;79;21056;-91
2022/02/25 10:59:03;;;;;;;12.10;7.72;;;;;;;4.49;78.72;99313.27;4392038;79;21068;-90
2022/02/25 11:05:20;;;;;;;15.23;8.50;;;;;;;4.46;78.51;99320.67;4366654;79;21022;-90
2022/02/25 11:11:23;;;;;;;15.30;9.70;;;;;;;4.25;78.41;99332.03;4373361;79;21067;-91
2022/02/25 11:17:25;;;;;;;16.12;9.45;;;;;;;4.22;79.03;99330.52;4390357;79;21025;-89
2022/02/25 11:23:27;;;;;;;19.95;8.53;;;;;;;4.32;78.91;99328.23;4393473;79;22297;-92
2022/02/25 11:29:33;;;;;;;10.35;7.08;;;;;;;4.39;78.87;99328.53;4406957;79;21037;-90
2022/02/25 11:35:49;;;;;;;13.70;8.60;;;;;;;4.40;78.48;99330.11;4396951;79;21042;-89
2022/02/25 11:41:57;;;;;;;15.65;8.93;;;;;;;4.50;78.52;99322.98;4388721;79;21730;-89
2022/02/25 11:47:58;;;;;;;16.60;8.90;;;;;;;5.04;79.08;99313.63;4396784;79;21010;-90
2022/02/25 11:54:29;;;;;;;13.93;7.87;;;;;;;6.08;78.27;99305.78;4387350;79;21817;-90
2022/02/25 12:00:30;;;;;;;13.70;7.45;;;;;;;6.35;76.97;99306.50;4362188;79;21075;-91
2022/02/25 12:07:04;;;;;;;12.10;6.85;;;;;;;6.06;76.23;99304.55;4361078;79;21090;-91
2022/02/25 12:13:06;;;;;;;13.18;6.53;;;;;;;6.23;76.18;99302.39;4361958;79;21047;-90
2022/02/25 12:19:14;;;;;;;14.28;7.17;;;;;;;6.42;74.70;99310.58;4356303;79;21052;-92
2022/02/25 12:25:46;;;;;;;12.35;6.58;;;;;;;6.44;72.85;99309.67;4366795;79;21057;-91
2022/02/25 12:31:53;;;;;;;9.83;5.83;;;;;;;6.19;72.52;99301.49;4367044;79;21011;-90
2022/02/25 12:37:55;;;;;;;10.88;5.60;;;;;;;6.70;72.58;99301.39;4362654;79;21063;-89
2022/02/25 12:44:06;;;;;;;13.15;6.70;;;;;;;7.06;72.16;99318.22;4362915;79;21003;-90
2022/02/25 12:50:10;;;;;;;14.63;6.30;;;;;;;7.02;71.01;99315.38;4361685;79;21021;-92
2022/02/25 12:56:27;;;;;;;14.63;6.62;;;;;;;7.11;70.82;99318.76;4382674;79;21729;-90
2022/02/25 13:02:29;;;;;;;18.42;8.18;;;;;;;7.11;69.93;99325.56;4388548;79;21032;-89
2022/02/25 13:08:31;;;;;;;14.75;6.30;;;;;;;7.08;68.74;99319.45;4392530;79;21631;-90
2022/02/25 13:14:53;;;;;;;15.93;6.25;;;;;;;7.33;68.81;99310.67;4381970;79;22334;-91
2022/02/25 13:21:03;;;;;;;12.33;5.90;;;;;;;7.27;67.18;99316.91;4392364;79;21660;-91
2022/02/25 13:27:08;;;;;;;20.50;7.62;;;;;;;7.02;68.54;99303.69;4401837;79;21074;-90
2022/02/25 13:33:14;;;;;;;13.15;7.75;;;;;;;7.23;66.68;99296.16;4361262;79;21007;-91
2022/02/25 13:39:27;;;;;;;18.73;7.10;;;;;;;7.15;66.92;99283.48;4386880;79;21621;-91
2022/02/25 13:45:35;;;;;;;18.70;6.85;;;;;;;7.47;67.15;99293.36;4387414;79;21055;-90
2022/02/25 13:58:01;;;;;;;22.27;10.68;;;;;;;7.75;66.58;99281.88;4385334;79;21949;-89
2022/02/25 14:04:22;;;;;;;13.50;5.70;;;;;;;8.03;65.57;99286.11;4391214;79;21542;-91
2022/02/25 14:10:36;;;;;;;9.13;3.70;;;;;;;7.91;63.07;99284.83;4380626;79;21101;-89
2022/02/25 14:16:43;;;;;;;8.43;4.87;;;;;;;7.94;63.16;99287.41;4381362;79;21114;-90
2022/02/25 14:22:58;;;;;;;8.05;2.47;;;;;;;7.81;63.41;99291.38;4391474;79;21170;-91
2022/02/25 14:29:06;;;;;;;5.83;2.50;;;;;;;7.53;62.05;99293.33;4212554;82;21078;-91
2022/02/25 14:35:21;;;;;;;10.23;1.85;;;;;;;7.29;61.29;99297.50;4211235;82;21074;-89
2022/02/25 14:41:23;;;;;;;7.45;2.70;;;;;;;7.04;60.62;99306.87;4233413;82;21116;-91
2022/02/25 14:47:27;;;;;;;6.75;2.33;;;;;;;6.89;60.07;99306.23;4190763;82;21889;-91
2022/02/25 14:53:29;;;;;;;9.45;2.55;;;;;;;6.74;59.18;99312.36;4214786;82;21689;-92
2022/02/25 14:59:32;;;;;;;15.85;5.00;;;;;;;6.62;59.15;99304.22;4256043;81;21043;-89
2022/02/25 15:05:33;;;;;;;10.72;4.05;;;;;;;6.49;59.20;99314.31;4339487;80;21585;-92
2022/02/25 15:11:35;;;;;;;7.65;4.00;;;;;;;6.25;58.84;99316.45;4334800;79;21014;-90
2022/02/25 15:17:41;;;;;;;11.43;2.50;;;;;;;6.10;58.36;99325.27;4342492;80;21038;-92
2022/02/25 15:23:42;;;;;;;9.38;3.37;;;;;;;5.99;57.92;99340.98;4337277;80;21054;-91
2022/02/25 15:29:44;;;;;;;8.20;3.58;;;;;;;5.81;57.70;99340.33;4343247;80;21050;-91
2022/02/25 15:35:46;;;;;;;7.08;3.42;;;;;;;5.58;57.50;99342.39;4335910;80;21593;-90
2022/02/25 15:41:47;;;;;;;16.35;6.37;;;;;;;5.37;57.64;99357.92;4337329;79;21890;-90
2022/02/25 15:47:49;;;;;;;18.32;6.22;;;;;;;5.20;57.70;99364.84;4324328;80;21108;-92
2022/02/25 15:53:50;;;;;;;18.05;8.53;;;;;;;5.00;58.32;99371.02;4350375;79;21011;-91
2022/02/25 15:59:51;;;;;;;17.52;7.40;;;;;;;4.72;58.48;99384.27;4381594;79;21035;-89
2022/02/25 16:05:55;;;;;;;20.95;7.28;;;;;;;4.57;58.63;99388.31;4390410;79;21402;-91
2022/02/25 16:11:57;;;;;;;22.85;7.65;;;;;;;4.49;58.98;99389.73;4381696;79;21538;-91
2022/02/25 16:17:59;;;;;;;17.80;6.58;;;;;;;4.34;59.03;99400.53;4390262;79;21051;-92
2022/02/25 16:24:00;;;;;;;15.43;5.40;;;;;;;4.15;59.23;99412.30;4397354;79;21511;-93
2022/02/25 16:30:05;;;;;;;20.00;8.50;;;;;;;3.93;59.68;99423.33;4385324;79;21541;-90
2022/02/25 16:36:09;;;;;;;33.33;13.38;;;;;;;3.71;59.59;99430.86;4394743;79;21050;-90
2022/02/25 16:42:11;;;;;;;39.83;17.15;;;;;;;3.63;59.54;99444.64;4393908;79;21035;-93
2022/02/25 16:48:13;;;;;;;34.00;14.63;;;;;;;3.53;61.01;99447.65;4384296;79;21616;-91
2022/02/25 16:54:14;;;;;;;21.20;11.38;;;;;;;3.38;63.44;99453.53;4212725;79;131926;-90
2022/02/25 17:00:19;;;;;;;24.35;11.55;;;;;;;3.23;66.38;99455.90;4229641;82;21070;-92
2022/02/25 17:06:22;;;;;;;28.95;12.33;;;;;;;3.06;68.15;99470.97;4232613;82;21050;-91
2022/02/25 17:12:25;;;;;;;27.98;14.47;;;;;;;2.90;68.53;99479.81;4237083;82;21087;-91
2022/02/25 17:18:29;;;;;;;29.57;13.62;;;;;;;2.81;68.25;99483.04;4248419;82;21054;-92
2022/02/25 17:24:33;;;;;;;24.57;13.15;;;;;;;2.67;69.35;99480.45;4242874;83;21079;-92
2022/02/25 17:30:36;;;;;;;26.10;13.65;;;;;;;2.57;71.07;99480.70;4252897;83;21513;-91
2022/02/25 17:36:40;;;;;;;28.75;15.13;;;;;;;2.47;70.28;99490.45;4234762;83;21088;-94
2022/02/25 17:42:43;;;;;;;29.70;15.20;;;;;;;2.41;71.48;99496.28;4228054;83;21075;-94
2022/02/25 17:48:48;;;;;;;32.33;16.82;;;;;;;2.31;71.19;99495.98;4227719;83;21062;-90
2022/02/25 17:54:49;;;;;;;36.42;16.54;;;;;;;2.28;71.17;99499.85;4100439;83;10000147;-91
2022/02/25 18:00:53;;;;;;;38.13;19.35;;;;;;;2.17;71.63;99512.81;4181992;83;21062;-90
2022/02/25 18:06:57;;;;;;;38.42;18.87;;;;;;;2.10;71.49;99527.86;4170498;83;21595;-92
2022/02/25 18:12:58;;;;;;;44.95;21.77;;;;;;;1.99;72.09;99536.73;4193603;83;21553;-90
2022/02/25 18:19:01;;;;;;;44.67;24.90;;;;;;;1.88;71.88;99539.98;4188430;83;21113;-89
2022/02/25 18:25:04;;;;;;;218.90;88.35;;;;;;;1.72;72.49;99543.58;4186874;83;22352;-92
2022/02/25 18:31:07;;;;;;;155.85;65.97;;;;;;;1.56;72.65;99552.56;4162309;83;21335;-91
2022/02/25 18:37:09;;;;;;;173.20;65.92;;;;;;;1.37;73.02;99557.27;4200549;83;21047;-92
2022/02/25 18:43:12;;;;;;;132.67;53.60;;;;;;;1.19;73.05;99546.59;4183088;83;21549;-91
2022/02/25 18:49:13;;;;;;;135.35;58.33;;;;;;;1.13;73.32;99566.65;4169151;83;21079;-90
2022/02/25 18:55:15;;;;;;;98.33;44.08;;;;;;;0.89;73.43;99578.95;4196948;83;21075;-90
2022/02/25 19:01:20;;;;;;;236.28;75.80;;;;;;;0.70;74.08;99577.44;4226166;83;21057;-91
2022/02/25 19:07:22;;;;;;;164.70;58.05;;;;;;;0.50;73.84;99580.48;4226595;83;21034;-92
2022/02/25 19:13:24;;;;;;;166.07;58.90;;;;;;;0.23;74.54;99560.18;4230164;83;21565;-90
2022/02/25 19:19:26;;;;;;;268.10;84.32;;;;;;;0.23;74.54;99560.18;4238895;83;21000;-90
2022/02/25 19:25:30;;;;;;;230.60;76.05;;;;;;;0.23;75.27;99591.95;4226409;83;21353;-91
2022/02/25 19:31:33;;;;;;;311.37;96.63;;;;;;;0.11;75.64;99612.34;4223294;83;21058;-91
2022/02/25 19:37:39;;;;;;;158.22;58.10;;;;;;;0.11;75.64;99612.34;4234003;83;21111;-90
2022/02/25 19:43:56;;;;;;;111.80;45.47;;;;;;;-0.06;75.55;99627.09;4231955;83;21978;-91
2022/02/25 19:50:07;;;;;;;128.93;54.75;;;;;;;-0.26;75.89;99630.06;4237109;83;21057;-90
2022/02/25 19:56:11;;;;;;;118.93;50.03;;;;;;;-0.41;76.11;99639.65;4223609;83;21626;-90
2022/02/25 20:02:13;;;;;;;112.90;47.65;;;;;;;-0.56;76.19;99637.16;4200762;83;21066;-90
2022/02/25 20:08:19;;;;;;;114.55;48.75;;;;;;;-0.74;76.10;99647.31;4205574;84;21059;-90
2022/02/25 20:14:24;;;;;;;101.53;42.50;;;;;;;-0.91;76.59;99659.03;4199760;84;21090;-91
2022/02/25 20:20:25;;;;;;;73.97;33.80;;;;;;;-0.98;76.83;99669.86;4195192;83;21059;-95
2022/02/25 20:26:30;;;;;;;89.73;40.87;;;;;;;-1.03;77.13;99675.27;4200889;83;21618;-92
2022/02/25 20:32:32;;;;;;;90.33;40.17;;;;;;;-1.11;77.43;99682.06;4193922;83;21016;-91
2022/02/25 20:38:33;;;;;;;83.37;36.23;;;;;;;-1.18;77.52;99686.16;4198649;83;21053;-93
2022/02/25 20:44:36;;;;;;;81.00;38.50;;;;;;;-1.23;77.89;99692.38;4198305;84;21785;-91
2022/02/25 20:50:37;;;;;;;73.40;32.53;;;;;;;-1.28;78.05;99698.35;4177204;84;21055;-91
2022/02/25 20:56:39;;;;;;;76.50;32.67;;;;;;;-1.27;78.49;99702.09;4168675;83;21058;-93
2022/02/25 21:02:41;;;;;;;77.63;32.73;;;;;;;-1.28;78.45;99700.47;4151606;83;21167;-91
2022/02/25 21:08:43;;;;;;;76.73;34.57;;;;;;;-1.34;78.58;99708.31;4061564;85;21089;-92
2022/02/25 21:14:45;;;;;;;72.50;31.17;;;;;;;-1.34;78.94;99715.56;4089470;85;21079;-91
2022/02/25 21:20:47;;;;;;;74.03;34.00;;;;;;;-1.32;79.16;99714.22;4015075;87;21076;-90
2022/02/25 21:26:48;;;;;;;73.70;34.93;;;;;;;-1.33;78.95;99714.50;4057365;85;21131;-90
2022/02/25 21:32:50;;;;;;;74.73;33.20;;;;;;;-1.43;78.83;99711.87;4104585;85;21025;-91
2022/02/25 21:38:51;;;;;;;88.43;38.07;;;;;;;-1.54;79.14;99719.73;4149075;84;21108;-91
2022/02/25 21:44:53;;;;;;;89.63;39.07;;;;;;;-1.57;79.23;99718.42;4156134;84;21036;-91
2022/02/25 21:50:54;;;;;;;89.10;39.60;;;;;;;-1.73;79.01;99728.45;4148456;84;21041;-91
2022/02/25 21:56:56;;;;;;;85.10;38.60;;;;;;;-1.89;79.03;99727.45;4134770;83;22361;-89
2022/02/25 22:02:59;;;;;;;92.03;43.13;;;;;;;-2.03;79.42;99725.91;4112378;85;21056;-90
2022/02/25 22:09:00;;;;;;;102.17;43.77;;;;;;;-2.10;79.62;99721.92;4116970;85;21113;-89
2022/02/25 22:15:03;;;;;;;89.93;40.13;;;;;;;-2.17;79.64;99721.41;4117239;86;21053;-90
2022/02/25 22:21:04;;;;;;;76.63;35.13;;;;;;;-2.28;79.89;99722.52;4117301;85;21090;-88
2022/02/25 22:27:06;;;;;;;77.27;35.30;;;;;;;-2.23;80.67;99722.50;4114117;85;21069;-88
2022/02/25 22:33:07;;;;;;;83.37;36.80;;;;;;;-2.30;79.95;99714.74;4114616;85;21109;-89
2022/02/25 22:39:10;;;;;;;73.73;32.83;;;;;;;-2.41;79.87;99711.83;4115476;85;21118;-89
2022/02/25 22:45:11;;;;;;;73.03;33.93;;;;;;;-2.53;80.52;99715.36;4115775;85;21055;-89
2022/02/25 23:03:53;;;;;;;76.90;30.70;;;;;;;-2.50;80.65;99732.23;4240010;83;21087;-88
2022/02/25 23:09:55;;;;;;;84.13;37.27;;;;;;;-2.56;80.78;99733.33;4215173;83;21118;-89
2022/02/25 23:15:58;;;;;;;90.60;39.50;;;;;;;-2.64;80.88;99746.47;4242762;83;21616;-90
2022/02/25 23:22:03;;;;;;;79.97;36.87;;;;;;;-2.70;80.90;99743.53;4227458;83;21015;-88
2022/02/25 23:28:05;;;;;;;77.37;36.43;;;;;;;-2.75;80.87;99751.58;4250607;83;21039;-89
2022/02/25 23:34:06;;;;;;;93.17;36.10;;;;;;;-2.85;81.16;99751.05;4228398;83;21105;-89
2022/02/25 23:40:09;;;;;;;67.27;32.17;;;;;;;-2.86;81.40;99749.97;4250285;83;22054;-90
2022/02/25 23:46:11;;;;;;;66.20;28.87;;;;;;;-2.90;81.53;99751.59;4152535;85;21084;-88
2022/02/25 23:52:12;;;;;;;59.63;26.87;;;;;;;-2.96;81.03;99757.48;4110402;84;21060;-87
2022/02/25 23:58:15;;;;;;;65.37;29.87;;;;;;;-2.93;81.78;99755.63;4074877;85;21077;-89
